Time;durP1;ratioP1;P1;durP2;ratioP2;P2;SDS_P1;SDS_P2;PMS_P1;PMS_P2;Temp;Humidity;BMP_temperature;BMP_pressure;BME280_temperature;BME280_humidity;BME280_pressure;Samples;Min_cycle;Max_cycle;Signal;HPM_P1;HPM_P2
2021/12/07 00:01:40;;;;;;;69.17;37.40;;;;;;;;;;5075147;28;20048;-64
2021/12/07 00:04:09;;;;;;;70.23;39.57;;;;;;;;;;5088341;28;20047;-65
2021/12/07 00:06:36;;;;;;;72.38;38.50;;;;;;;;;;5073376;28;20063;-64
2021/12/07 00:09:07;;;;;;;77.60;38.83;;;;;;;;;;5071685;28;20061;-63
2021/12/07 00:11:33;;;;;;;70.17;35.87;;;;;;;;;;5083966;28;20087;-64
2021/12/07 00:14:00;;;;;;;73.65;37.15;;;;;;;;;;5078411;28;20041;-63
2021/12/07 00:16:26;;;;;;;;;;;;;;;;;;5074144;28;20098;-64
2021/12/07 00:18:52;;;;;;;67.23;38.73;;;;;;;;;;5056064;28;20408;-64
2021/12/07 00:21:19;;;;;;;71.32;37.53;;;;;;;;;;5078142;28;20040;-66
2021/12/07 00:23:46;;;;;;;70.77;37.63;;;;;;;;;;5092158;28;20144;-64
2021/12/07 00:26:12;;;;;;;68.53;37.33;;;;;;;;;;5093910;28;20119;-63
2021/12/07 00:28:38;;;;;;;;;;;;;;;;;;5093806;28;20735;-64
2021/12/07 00:31:25;;;;;;;63.97;36.20;;;;;;;;;;5093410;28;19952;-65
2021/12/07 00:34:07;;;;;;;72.65;39.03;;;;;;;;;;5081265;28;20048;-64
2021/12/07 00:36:34;;;;;;;79.80;41.47;;;;;;;;;;5092807;28;20075;-64
2021/12/07 00:39:00;;;;;;;67.63;37.37;;;;;;;;;;5093741;28;20385;-64
2021/12/07 00:41:26;;;;;;;70.18;39.35;;;;;;;;;;5092799;28;20105;-65
2021/12/07 00:43:56;;;;;;;78.78;42.00;;;;;;;;;;5084930;28;20040;-65
2021/12/07 00:46:23;;;;;;;70.80;38.77;;;;;;;;;;5093174;28;20052;-65
2021/12/07 00:48:49;;;;;;;63.07;36.10;;;;;;;;;;5092544;28;20040;-63
2021/12/07 00:51:15;;;;;;;66.20;37.10;;;;;;;;;;5084180;28;20044;-64
2021/12/07 00:53:41;;;;;;;61.05;36.60;;;;;;;;;;5092586;28;20123;-64
2021/12/07 00:56:07;;;;;;;58.03;33.72;;;;;;;;;;5090081;28;20051;-63
2021/12/07 00:58:34;;;;;;;54.15;32.70;;;;;;;;;;5087328;28;20404;-64
2021/12/07 01:01:02;;;;;;;68.13;36.55;;;;;;;;;;5075228;28;20450;-63
2021/12/07 01:03:29;;;;;;;75.37;39.93;;;;;;;;;;5092554;28;20134;-64
2021/12/07 01:06:05;;;;;;;75.40;39.47;;;;;;;;;;5081185;28;20094;-64
2021/12/07 01:08:55;;;;;;;64.90;35.92;;;;;;;;;;5073054;28;20088;-64
2021/12/07 01:25:09;;;;;;;73.23;38.33;;;;;;;;;;5072667;28;20056;-64
2021/12/07 01:27:35;;;;;;;72.90;36.47;;;;;;;;;;5084021;28;20037;-64
2021/12/07 01:30:15;;;;;;;65.00;37.17;;;;;;;;;;5058824;28;20048;-64
2021/12/07 01:33:07;;;;;;;62.93;35.13;;;;;;;;;;5071816;28;20127;-64
2021/12/07 01:46:23;;;;;;;77.10;37.20;;;;;;;;;;5084854;28;20112;-64
2021/12/07 01:51:45;;;;;;;81.87;41.60;;;;;;;;;;5071982;28;20109;-64
2021/12/07 01:59:46;;;;;;;68.07;36.60;;;;;;;;;;5071372;28;20118;-63
2021/12/07 02:02:16;;;;;;;78.00;37.13;;;;;;;;;;5089841;28;20059;-64
2021/12/07 02:04:42;;;;;;;83.13;40.57;;;;;;;;;;5071487;28;20068;-64
2021/12/07 02:07:08;;;;;;;;;;;;;;;;;;5086639;28;20571;-63
2021/12/07 02:09:36;;;;;;;83.07;39.07;;;;;;;;;;5090828;28;19967;-63
2021/12/07 02:12:03;;;;;;;75.77;37.40;;;;;;;;;;5092055;28;20052;-63
2021/12/07 02:14:30;;;;;;;66.73;35.93;;;;;;;;;;5072531;28;20127;-63
2021/12/07 02:17:01;;;;;;;72.20;37.80;;;;;;;;;;5071389;28;20445;-63
2021/12/07 02:19:27;;;;;;;73.37;37.37;;;;;;;;;;5075666;28;20080;-64
2021/12/07 02:21:53;;;;;;;68.38;37.00;;;;;;;;;;5091224;28;20381;-64
2021/12/07 02:24:21;;;;;;;75.73;39.77;;;;;;;;;;5077017;28;20045;-64
2021/12/07 02:26:47;;;;;;;65.90;36.07;;;;;;;;;;5084356;28;20055;-63
2021/12/07 02:29:13;;;;;;;83.20;40.80;;;;;;;;;;5082938;28;20056;-63
2021/12/07 02:31:40;;;;;;;71.68;38.55;;;;;;;;;;5076737;28;20071;-63
2021/12/07 02:34:06;;;;;;;74.10;37.63;;;;;;;;;;5091973;28;20060;-63
2021/12/07 02:36:32;;;;;;;56.60;34.13;;;;;;;;;;5084825;28;20522;-63
2021/12/07 02:38:59;;;;;;;65.05;35.85;;;;;;;;;;5053221;28;20354;-63
2021/12/07 02:41:25;;;;;;;67.00;37.07;;;;;;;;;;5072508;28;20500;-64
2021/12/07 02:43:51;;;;;;;74.03;38.63;;;;;;;;;;5071087;28;20044;-63
2021/12/07 02:46:17;;;;;;;76.75;39.95;;;;;;;;;;5072882;28;20044;-64
2021/12/07 02:48:43;;;;;;;70.45;38.60;;;;;;;;;;5090980;28;20479;-63
2021/12/07 02:51:10;;;;;;;74.95;39.67;;;;;;;;;;5090846;28;20044;-63
2021/12/07 02:53:36;;;;;;;74.82;40.17;;;;;;;;;;5089004;28;22057;-63
2021/12/07 02:56:03;;;;;;;84.63;40.63;;;;;;;;;;5066928;28;20438;-63
2021/12/07 02:58:29;;;;;;;68.23;39.00;;;;;;;;;;5091798;28;20050;-63
2021/12/07 03:01:02;;;;;;;65.70;36.92;;;;;;;;;;5083402;28;20048;-63
2021/12/07 03:03:32;;;;;;;81.47;40.40;;;;;;;;;;5083269;28;20044;-63
2021/12/07 03:06:30;;;;;;;82.77;40.50;;;;;;;;;;5070649;28;20315;-63
2021/12/07 03:27:53;;;;;;;84.20;38.10;;;;;;;;;;5090901;28;20126;-64
2021/12/07 03:30:20;;;;;;;74.90;38.03;;;;;;;;;;5079165;28;20060;-63
2021/12/07 03:32:46;;;;;;;68.00;33.13;;;;;;;;;;5080428;28;20156;-64
2021/12/07 03:35:12;;;;;;;75.07;37.05;;;;;;;;;;5095230;28;20087;-63
2021/12/07 03:37:38;;;;;;;70.20;36.13;;;;;;;;;;5076716;28;20407;-63
2021/12/07 03:40:05;;;;;;;73.53;35.88;;;;;;;;;;5093852;28;20104;-63
2021/12/07 03:42:31;;;;;;;69.93;33.93;;;;;;;;;;5086170;28;20044;-64
2021/12/07 03:44:57;;;;;;;60.80;33.65;;;;;;;;;;5073955;28;20048;-64
2021/12/07 03:47:23;;;;;;;58.20;32.55;;;;;;;;;;5074381;28;20453;-63
2021/12/07 03:49:49;;;;;;;58.25;32.03;;;;;;;;;;5080286;28;20418;-64
2021/12/07 03:52:16;;;;;;;89.30;37.22;;;;;;;;;;5092739;28;20131;-64
2021/12/07 03:54:42;;;;;;;63.72;33.45;;;;;;;;;;5094628;28;20080;-63
2021/12/07 03:57:08;;;;;;;65.82;32.05;;;;;;;;;;5094107;28;20055;-64
2021/12/07 03:59:34;;;;;;;58.45;31.42;;;;;;;;;;5093907;28;20043;-64
2021/12/07 04:02:01;;;;;;;65.70;32.95;;;;;;;;;;5077801;28;20044;-63
2021/12/07 04:04:28;;;;;;;69.97;32.90;;;;;;;;;;5074088;28;20106;-63
2021/12/07 04:06:54;;;;;;;87.33;34.60;;;;;;;;;;5093740;28;20051;-64
2021/12/07 04:09:20;;;;;;;60.85;31.33;;;;;;;;;;5094142;28;20063;-63
2021/12/07 04:11:46;;;;;;;67.97;33.13;;;;;;;;;;5094391;28;20104;-63
2021/12/07 04:14:12;;;;;;;61.58;32.15;;;;;;;;;;5076599;28;20088;-63
2021/12/07 04:16:39;;;;;;;53.20;29.65;;;;;;;;;;5074041;28;20052;-63
2021/12/07 04:19:05;;;;;;;75.10;33.53;;;;;;;;;;5073180;28;20037;-63
2021/12/07 04:21:31;;;;;;;74.15;35.03;;;;;;;;;;5055905;28;20056;-64
2021/12/07 04:23:57;;;;;;;51.42;29.48;;;;;;;;;;5074107;28;20591;-64
2021/12/07 04:26:24;;;;;;;65.75;32.08;;;;;;;;;;5074922;28;20500;-63
2021/12/07 04:28:51;;;;;;;62.57;30.63;;;;;;;;;;5073426;28;20044;-65
2021/12/07 04:31:17;;;;;;;66.00;30.52;;;;;;;;;;5073787;28;20048;-64
2021/12/07 04:33:43;;;;;;;60.13;30.65;;;;;;;;;;5073211;28;20119;-63
2021/12/07 04:36:10;;;;;;;57.88;29.73;;;;;;;;;;5074915;28;20056;-63
2021/12/07 04:38:36;;;;;;;55.70;28.70;;;;;;;;;;5083420;28;20044;-63
2021/12/07 04:41:03;;;;;;;59.05;30.50;;;;;;;;;;5076221;28;20049;-63
2021/12/07 04:43:29;;;;;;;65.20;30.53;;;;;;;;;;5078191;28;20040;-63
2021/12/07 04:59:08;;;;;;;55.87;27.93;;;;;;;;;;5072583;28;20048;-63
2021/12/07 05:01:34;;;;;;;54.83;27.23;;;;;;;;;;5075282;28;20048;-64
2021/12/07 05:04:06;;;;;;;69.87;31.63;;;;;;;;;;5054708;28;20399;-64
2021/12/07 05:06:34;;;;;;;54.27;25.60;;;;;;;;;;5073097;28;20059;-63
2021/12/07 05:09:18;;;;;;;57.43;28.63;;;;;;;;;;5071966;28;20060;-64
2021/12/07 05:14:26;;;;;;;68.25;29.58;;;;;;;;;;5092578;28;20052;-63
2021/12/07 05:25:23;;;;;;;62.47;26.13;;;;;;;;;;5074686;28;20075;-63
2021/12/07 05:38:58;;;;;;;60.38;26.92;;;;;;;;;;5055013;28;20344;-65
2021/12/07 05:41:24;;;;;;;52.47;25.45;;;;;;;;;;5091616;28;20118;-64
2021/12/07 05:43:50;;;;;;;;;;;;;;;;;;5092622;28;20213;-64
2021/12/07 05:46:16;;;;;;;47.93;23.80;;;;;;;;;;5091458;28;20378;-64
2021/12/07 05:48:43;;;;;;;50.60;24.13;;;;;;;;;;5092412;28;20044;-64
2021/12/07 05:51:09;;;;;;;82.90;29.42;;;;;;;;;;5089914;28;20044;-64
2021/12/07 05:53:35;;;;;;;50.08;25.52;;;;;;;;;;5073593;28;20048;-64
2021/12/07 05:56:01;;;;;;;49.28;23.40;;;;;;;;;;5077030;28;20052;-65
2021/12/07 05:58:27;;;;;;;;;;;;;;;;;;5072515;28;20041;-63
2021/12/07 06:00:57;;;;;;;54.00;24.30;;;;;;;;;;5081084;28;19926;-64
2021/12/07 06:03:24;;;;;;;56.13;25.33;;;;;;;;;;5089756;28;20098;-64
2021/12/07 06:05:50;;;;;;;56.80;25.27;;;;;;;;;;5089880;28;20075;-64
2021/12/07 06:08:16;;;;;;;51.08;24.98;;;;;;;;;;5091289;28;20064;-64
2021/12/07 06:10:42;;;;;;;56.83;23.50;;;;;;;;;;5092235;28;20113;-64
2021/12/07 06:13:08;;;;;;;54.20;23.73;;;;;;;;;;5088676;28;20120;-64
2021/12/07 06:15:36;;;;;;;60.08;25.67;;;;;;;;;;5073055;28;20040;-64
2021/12/07 06:18:03;;;;;;;54.60;23.73;;;;;;;;;;5071871;28;20047;-64
2021/12/07 06:20:29;;;;;;;62.83;24.67;;;;;;;;;;5071620;28;20052;-64
2021/12/07 06:22:55;;;;;;;48.53;22.90;;;;;;;;;;5072842;28;20051;-64
2021/12/07 06:25:21;;;;;;;49.97;21.13;;;;;;;;;;5071239;28;20055;-64
2021/12/07 06:27:48;;;;;;;58.00;23.38;;;;;;;;;;5076021;28;20058;-65
2021/12/07 06:30:14;;;;;;;43.20;21.02;;;;;;;;;;5084842;28;20131;-64
2021/12/07 06:32:40;;;;;;;55.43;25.17;;;;;;;;;;5089243;28;20078;-64
2021/12/07 06:35:10;;;;;;;62.40;24.80;;;;;;;;;;5086343;28;20043;-64
2021/12/07 06:37:37;;;;;;;74.00;25.40;;;;;;;;;;5078531;28;20054;-64
2021/12/07 06:40:03;;;;;;;;;;;;;;;;;;5080265;28;20040;-64
2021/12/07 06:42:29;;;;;;;80.73;27.07;;;;;;;;;;5074539;28;20296;-64
2021/12/07 06:44:55;;;;;;;48.60;20.85;;;;;;;;;;5079401;28;20473;-64
2021/12/07 06:47:21;;;;;;;47.80;20.13;;;;;;;;;;5068564;28;20062;-64
2021/12/07 06:49:48;;;;;;;56.55;22.75;;;;;;;;;;5082918;28;20040;-64
2021/12/07 06:52:14;;;;;;;43.23;19.03;;;;;;;;;;5089626;28;20048;-64
2021/12/07 06:54:40;;;;;;;45.03;19.92;;;;;;;;;;5087190;28;20147;-64
2021/12/07 06:57:06;;;;;;;52.58;21.50;;;;;;;;;;5089164;28;20488;-64
2021/12/07 06:59:33;;;;;;;42.70;20.60;;;;;;;;;;5075632;28;20131;-64
2021/12/07 07:01:59;;;;;;;50.15;20.23;;;;;;;;;;5075734;28;20483;-64
2021/12/07 07:04:25;;;;;;;43.03;19.25;;;;;;;;;;5078849;28;20037;-64
2021/12/07 07:06:51;;;;;;;55.20;21.38;;;;;;;;;;5094008;28;20392;-64
2021/12/07 07:09:17;;;;;;;47.90;22.15;;;;;;;;;;5066360;28;20140;-64
2021/12/07 07:11:43;;;;;;;44.10;20.50;;;;;;;;;;5085662;28;20056;-64
2021/12/07 07:14:10;;;;;;;48.20;20.30;;;;;;;;;;5091831;28;20040;-65
2021/12/07 07:16:36;;;;;;;;;;;;;;;;;;5084100;28;20040;-64
2021/12/07 07:19:02;;;;;;;43.37;19.30;;;;;;;;;;5095508;28;19920;-64
2021/12/07 07:21:28;;;;;;;52.97;21.50;;;;;;;;;;5092192;28;20083;-64
2021/12/07 07:23:54;;;;;;;;;;;;;;;;;;5090729;28;20043;-64
2021/12/07 07:26:21;;;;;;;38.27;16.90;;;;;;;;;;5088689;28;20019;-64
2021/12/07 07:28:47;;;;;;;45.33;18.27;;;;;;;;;;5057728;28;20041;-64
2021/12/07 07:31:13;;;;;;;59.75;22.40;;;;;;;;;;5088370;28;20090;-64
2021/12/07 07:33:40;;;;;;;37.20;16.67;;;;;;;;;;5094869;28;20543;-64
2021/12/07 07:36:06;;;;;;;45.70;19.87;;;;;;;;;;5095126;28;20079;-64
2021/12/07 07:38:32;;;;;;;52.40;18.80;;;;;;;;;;5094770;28;20075;-64
2021/12/07 07:40:58;;;;;;;;;;;;;;;;;;5072386;28;20055;-64
2021/12/07 07:43:25;;;;;;;42.13;18.77;;;;;;;;;;5093336;28;20283;-64
2021/12/07 07:45:52;;;;;;;48.58;19.17;;;;;;;;;;5067871;28;20453;-64
2021/12/07 07:48:20;;;;;;;46.07;18.83;;;;;;;;;;5088663;28;20488;-65
2021/12/07 07:50:46;;;;;;;38.73;17.60;;;;;;;;;;5089076;28;20539;-64
2021/12/07 07:53:12;;;;;;;;;;;;;;;;;;5091211;28;20052;-64
2021/12/07 07:55:40;;;;;;;45.60;18.53;;;;;;;;;;5086311;28;20011;-64
2021/12/07 07:58:06;;;;;;;44.17;20.13;;;;;;;;;;5094667;28;20055;-64
2021/12/07 08:00:33;;;;;;;53.37;20.07;;;;;;;;;;5092751;28;20093;-64
2021/12/07 08:02:59;;;;;;;45.83;18.90;;;;;;;;;;5089641;28;20051;-64
2021/12/07 08:05:25;;;;;;;41.85;18.50;;;;;;;;;;5088161;28;20206;-64
2021/12/07 08:07:52;;;;;;;43.97;20.25;;;;;;;;;;5058291;28;20048;-64
2021/12/07 08:10:20;;;;;;;51.00;21.05;;;;;;;;;;5076973;28;20113;-65
2021/12/07 08:12:47;;;;;;;65.73;23.93;;;;;;;;;;5086988;28;20052;-64
2021/12/07 08:15:14;;;;;;;41.78;18.33;;;;;;;;;;5082485;28;20045;-64
2021/12/07 08:17:40;;;;;;;46.43;20.73;;;;;;;;;;5090259;28;20051;-64
2021/12/07 08:20:07;;;;;;;54.03;19.50;;;;;;;;;;5084803;28;20055;-64
2021/12/07 08:22:33;;;;;;;50.77;20.63;;;;;;;;;;5091759;28;20067;-64
2021/12/07 08:24:59;;;;;;;44.05;19.33;;;;;;;;;;5091522;28;20047;-64
2021/12/07 08:27:26;;;;;;;45.47;18.42;;;;;;;;;;5086105;28;20124;-64
2021/12/07 08:29:52;;;;;;;55.90;20.10;;;;;;;;;;5071825;28;20055;-64
2021/12/07 08:32:18;;;;;;;55.08;22.15;;;;;;;;;;5092070;28;20077;-64
2021/12/07 08:34:44;;;;;;;43.75;18.52;;;;;;;;;;5090749;28;20051;-64
2021/12/07 08:37:11;;;;;;;48.95;19.23;;;;;;;;;;5073818;28;20052;-64
2021/12/07 08:39:37;;;;;;;;;;;;;;;;;;5073797;28;20049;-64
2021/12/07 08:42:04;;;;;;;43.87;18.27;;;;;;;;;;5073697;28;19971;-64
2021/12/07 08:44:30;;;;;;;42.73;18.37;;;;;;;;;;5089343;28;20055;-64
2021/12/07 08:46:56;;;;;;;41.00;18.92;;;;;;;;;;5093927;28;20137;-64
2021/12/07 08:49:22;;;;;;;48.50;20.27;;;;;;;;;;5093766;28;20040;-64
2021/12/07 08:51:49;;;;;;;39.65;17.52;;;;;;;;;;5090091;28;20136;-64
2021/12/07 08:59:45;;;;;;;48.10;18.27;;;;;;;;;;5088208;28;20048;-64
2021/12/07 09:02:22;;;;;;;38.57;16.40;;;;;;;;;;5088246;28;20047;-64
2021/12/07 09:04:48;;;;;;;;;;;;;;;;;;5075227;28;20080;-64
2021/12/07 09:07:14;;;;;;;38.77;16.10;;;;;;;;;;5093214;28;19997;-64
2021/12/07 09:09:43;;;;;;;41.05;16.77;;;;;;;;;;5087911;28;20056;-65
2021/12/07 09:12:09;;;;;;;52.30;19.23;;;;;;;;;;5087111;28;20048;-64
2021/12/07 09:14:36;;;;;;;36.10;17.37;;;;;;;;;;5090674;28;20052;-64
2021/12/07 09:17:03;;;;;;;46.80;17.58;;;;;;;;;;5075276;28;20055;-65
2021/12/07 09:19:29;;;;;;;46.67;17.07;;;;;;;;;;5081226;28;20059;-65
2021/12/07 09:21:59;;;;;;;40.77;17.23;;;;;;;;;;5073830;28;20109;-64
2021/12/07 09:24:26;;;;;;;37.67;15.03;;;;;;;;;;5086951;28;20049;-65
2021/12/07 09:26:52;;;;;;;42.53;14.63;;;;;;;;;;5064030;28;20051;-64
2021/12/07 09:29:19;;;;;;;33.53;15.07;;;;;;;;;;5072899;28;20045;-64
2021/12/07 09:31:45;;;;;;;38.20;14.73;;;;;;;;;;5054386;28;20048;-64
2021/12/07 09:34:12;;;;;;;37.28;13.45;;;;;;;;;;5054653;28;20550;-65
2021/12/07 09:36:38;;;;;;;41.28;14.68;;;;;;;;;;5081300;28;20041;-64
2021/12/07 09:39:07;;;;;;;41.50;14.90;;;;;;;;;;5075821;28;20038;-64
2021/12/07 09:41:33;;;;;;;42.67;13.73;;;;;;;;;;5085181;28;20042;-65
2021/12/07 09:43:59;;;;;;;43.27;15.80;;;;;;;;;;5079718;28;20451;-64
2021/12/07 09:46:26;;;;;;;35.88;14.00;;;;;;;;;;5072303;28;20107;-63
2021/12/07 09:48:52;;;;;;;34.38;13.98;;;;;;;;;;5071863;28;20040;-64
2021/12/07 09:51:19;;;;;;;42.85;14.90;;;;;;;;;;5072517;28;20052;-64
2021/12/07 09:53:46;;;;;;;37.37;14.47;;;;;;;;;;5060139;28;20048;-64
2021/12/07 09:56:12;;;;;;;39.03;15.60;;;;;;;;;;5092295;28;20492;-64
2021/12/07 09:58:39;;;;;;;38.05;13.90;;;;;;;;;;5092167;28;20063;-64
2021/12/07 10:01:06;;;;;;;34.17;13.90;;;;;;;;;;5091984;28;20130;-64
2021/12/07 10:03:32;;;;;;;;;;;;;;;;;;5092805;28;20047;-64
2021/12/07 10:05:58;;;;;;;44.43;14.60;;;;;;;;;;5062899;28;20042;-64
2021/12/07 10:08:24;;;;;;;39.67;15.38;;;;;;;;;;5102411;28;20044;-63
2021/12/07 10:10:54;;;;;;;36.53;14.15;;;;;;;;;;5111716;28;20043;-63
2021/12/07 10:13:23;;;;;;;33.13;12.93;;;;;;;;;;5110980;28;20086;-64
2021/12/07 10:15:50;;;;;;;39.00;13.70;;;;;;;;;;5107181;28;20544;-64
2021/12/07 10:18:28;;;;;;;35.73;13.00;;;;;;;;;;5106958;28;20061;-65
2021/12/07 10:20:59;;;;;;;38.03;13.57;;;;;;;;;;5095872;28;20035;-64
2021/12/07 10:23:25;;;;;;;30.40;12.90;;;;;;;;;;5108937;28;20052;-64
2021/12/07 10:26:02;;;;;;;41.92;13.30;;;;;;;;;;5111234;28;20044;-65
2021/12/07 10:28:28;;;;;;;41.93;14.80;;;;;;;;;;5111456;28;20039;-64
2021/12/07 10:30:55;;;;;;;34.00;12.85;;;;;;;;;;5103238;28;20525;-64
2021/12/07 10:33:31;;;;;;;34.63;13.43;;;;;;;;;;5106509;28;20104;-65
2021/12/07 10:36:11;;;;;;;37.67;13.47;;;;;;;;;;5112192;28;20043;-64
2021/12/07 10:38:38;;;;;;;40.80;12.13;;;;;;;;;;5105715;28;20036;-65
2021/12/07 10:41:06;;;;;;;39.50;12.35;;;;;;;;;;5089604;28;20131;-64
2021/12/07 10:43:39;;;;;;;33.93;11.87;;;;;;;;;;5111454;28;20427;-64
2021/12/07 10:46:24;;;;;;;34.03;11.83;;;;;;;;;;5098577;28;20112;-64
2021/12/07 10:48:50;;;;;;;37.00;12.37;;;;;;;;;;5108067;28;20045;-64
2021/12/07 10:51:16;;;;;;;30.85;10.40;;;;;;;;;;5110454;28;20052;-64
2021/12/07 10:53:53;;;;;;;35.08;11.15;;;;;;;;;;5088463;28;20440;-64
2021/12/07 10:56:29;;;;;;;29.98;12.10;;;;;;;;;;5104699;28;20554;-64
2021/12/07 10:59:08;;;;;;;36.97;11.50;;;;;;;;;;5108849;28;20118;-64
2021/12/07 11:01:39;;;;;;;39.67;12.00;;;;;;;;;;5106772;28;20098;-64
2021/12/07 11:04:25;;;;;;;35.10;10.30;;;;;;;;;;5102639;28;20214;-64
2021/12/07 11:07:03;;;;;;;33.10;10.30;;;;;;;;;;5110533;28;20052;-64
2021/12/07 11:09:29;;;;;;;28.20;9.73;;;;;;;;;;5095743;28;20052;-64
2021/12/07 11:12:15;;;;;;;31.58;9.98;;;;;;;;;;5091383;28;20048;-64
2021/12/07 11:14:48;;;;;;;28.93;10.50;;;;;;;;;;5091493;28;20048;-64
2021/12/07 11:17:15;;;;;;;29.33;11.00;;;;;;;;;;5104874;28;20055;-64
2021/12/07 11:19:41;;;;;;;35.03;11.20;;;;;;;;;;5111758;28;20112;-64
2021/12/07 11:22:07;;;;;;;32.35;11.07;;;;;;;;;;5095170;28;20101;-65
2021/12/07 11:24:38;;;;;;;27.70;10.07;;;;;;;;;;5106399;28;20044;-64
2021/12/07 11:29:57;;;;;;;31.33;11.03;;;;;;;;;;5104132;28;20054;-64
2021/12/07 11:32:23;;;;;;;29.23;12.10;;;;;;;;;;5112007;28;20049;-64
2021/12/07 11:34:49;;;;;;;32.35;11.82;;;;;;;;;;5110145;28;20072;-62
2021/12/07 11:37:15;;;;;;;30.85;10.65;;;;;;;;;;5111455;28;20055;-61
2021/12/07 11:39:51;;;;;;;30.55;10.52;;;;;;;;;;5111085;28;20092;-64
2021/12/07 11:42:28;;;;;;;23.95;9.68;;;;;;;;;;5112116;28;20131;-63
2021/12/07 11:44:56;;;;;;;30.55;10.05;;;;;;;;;;5112202;28;20047;-63
2021/12/07 11:47:26;;;;;;;28.23;9.90;;;;;;;;;;5113094;28;20048;-63
2021/12/07 11:49:52;;;;;;;23.73;9.03;;;;;;;;;;5097232;28;20051;-62
2021/12/07 11:52:18;;;;;;;;;;;;;;;;;;5110744;28;20040;-64
2021/12/07 11:54:44;;;;;;;27.13;8.77;;;;;;;;;;5113331;28;20398;-63
2021/12/07 11:57:13;;;;;;;31.30;9.55;;;;;;;;;;5107572;28;20036;-63
2021/12/07 11:59:42;;;;;;;29.20;10.63;;;;;;;;;;5113193;28;20039;-63
2021/12/07 12:02:08;;;;;;;;;;;;;;;;;;5096351;28;20491;-63
2021/12/07 12:04:35;;;;;;;29.80;9.53;;;;;;;;;;5106296;28;19920;-62
2021/12/07 12:07:01;;;;;;;31.23;9.67;;;;;;;;;;5094117;28;20437;-62
2021/12/07 12:09:28;;;;;;;25.40;9.20;;;;;;;;;;5094729;28;20479;-63
2021/12/07 12:12:00;;;;;;;30.57;9.80;;;;;;;;;;5094573;28;20515;-63
2021/12/07 12:14:28;;;;;;;25.70;8.27;;;;;;;;;;5096010;28;20071;-63
2021/12/07 12:17:08;;;;;;;26.75;9.13;;;;;;;;;;5094520;28;20131;-62
2021/12/07 12:19:53;;;;;;;22.45;8.60;;;;;;;;;;5094466;28;20571;-62
2021/12/07 12:22:31;;;;;;;25.90;8.57;;;;;;;;;;5093825;28;20087;-62
2021/12/07 12:25:00;;;;;;;28.70;9.07;;;;;;;;;;5094712;28;20400;-62
2021/12/07 12:27:27;;;;;;;25.85;8.00;;;;;;;;;;5105316;28;20496;-63
2021/12/07 12:29:56;;;;;;;27.67;7.95;;;;;;;;;;5093928;28;20140;-61
2021/12/07 12:32:30;;;;;;;32.63;8.75;;;;;;;;;;5093685;28;20044;-62
2021/12/07 12:34:57;;;;;;;25.55;8.65;;;;;;;;;;5094185;28;20048;-62
2021/12/07 12:37:25;;;;;;;29.25;7.50;;;;;;;;;;5094996;28;20492;-62
2021/12/07 12:39:54;;;;;;;26.37;8.30;;;;;;;;;;5093361;28;20395;-62
2021/12/07 12:42:25;;;;;;;24.98;8.70;;;;;;;;;;5092744;28;20090;-62
2021/12/07 12:44:57;;;;;;;27.55;7.80;;;;;;;;;;5093940;28;20083;-60
2021/12/07 12:47:25;;;;;;;24.60;8.25;;;;;;;;;;5076415;28;20040;-61
2021/12/07 12:49:51;;;;;;;27.67;8.18;;;;;;;;;;5093766;28;20040;-62
2021/12/07 12:52:37;;;;;;;24.98;8.45;;;;;;;;;;5093294;28;20087;-61
2021/12/07 12:55:04;;;;;;;28.25;8.30;;;;;;;;;;5092792;28;20040;-62
2021/12/07 12:57:30;;;;;;;30.05;8.57;;;;;;;;;;5094600;28;20610;-61
2021/12/07 12:59:56;;;;;;;26.25;7.88;;;;;;;;;;5093656;28;20055;-60
2021/12/07 13:02:22;;;;;;;20.60;8.18;;;;;;;;;;5094276;28;20052;-62
2021/12/07 13:05:16;;;;;;;23.40;7.80;;;;;;;;;;5098470;28;20043;-61
2021/12/07 13:07:42;;;;;;;25.30;8.23;;;;;;;;;;5111600;28;20044;-61
2021/12/07 13:10:08;;;;;;;28.15;8.95;;;;;;;;;;5113051;28;20058;-60
2021/12/07 13:12:38;;;;;;;20.88;8.05;;;;;;;;;;5095572;28;20138;-61
2021/12/07 13:15:08;;;;;;;24.42;7.70;;;;;;;;;;5111230;28;20194;-62
2021/12/07 13:17:39;;;;;;;31.92;8.80;;;;;;;;;;5113109;28;20036;-62
2021/12/07 13:20:11;;;;;;;32.40;8.85;;;;;;;;;;5113100;28;20048;-62
2021/12/07 13:22:49;;;;;;;30.80;8.57;;;;;;;;;;5095743;28;20059;-62
2021/12/07 13:25:19;;;;;;;28.40;8.45;;;;;;;;;;5111306;28;20051;-62
2021/12/07 13:28:04;;;;;;;22.27;7.45;;;;;;;;;;5113413;28;20424;-61
2021/12/07 13:30:49;;;;;;;24.25;8.38;;;;;;;;;;5113577;28;20488;-61
2021/12/07 13:33:31;;;;;;;24.95;7.75;;;;;;;;;;5112952;28;20134;-61
2021/12/07 13:35:58;;;;;;;30.67;8.75;;;;;;;;;;5109927;28;20047;-62
2021/12/07 13:38:24;;;;;;;;;;;;;;;;;;5092771;28;20521;-60
2021/12/07 13:40:52;;;;;;;23.55;8.70;;;;;;;;;;5092639;28;19936;-61
2021/12/07 13:43:32;;;;;;;22.10;8.98;;;;;;;;;;5092368;28;20101;-61
2021/12/07 13:46:14;;;;;;;32.88;10.40;;;;;;;;;;5074633;28;20052;-61
2021/12/07 13:48:41;;;;;;;29.88;9.00;;;;;;;;;;5092378;28;20043;-61
2021/12/07 13:51:08;;;;;;;20.83;8.98;;;;;;;;;;5092249;28;20078;-62
2021/12/07 13:53:35;;;;;;;24.38;9.10;;;;;;;;;;5092562;28;20059;-61
2021/12/07 13:56:01;;;;;;;28.90;9.00;;;;;;;;;;5074799;28;20048;-61
2021/12/07 13:58:31;;;;;;;27.25;9.43;;;;;;;;;;5106564;28;20055;-62
2021/12/07 14:01:00;;;;;;;29.08;9.98;;;;;;;;;;5112668;28;20062;-61
2021/12/07 14:03:26;;;;;;;26.40;9.77;;;;;;;;;;5112014;28;20100;-61
2021/12/07 14:05:52;;;;;;;25.40;9.35;;;;;;;;;;5111610;28;20051;-61
2021/12/07 14:08:18;;;;;;;24.13;9.27;;;;;;;;;;5110081;28;20056;-61
2021/12/07 14:10:44;;;;;;;28.10;10.10;;;;;;;;;;5112386;28;20070;-61
2021/12/07 14:13:10;;;;;;;30.33;10.10;;;;;;;;;;5077028;28;20040;-63
2021/12/07 14:15:41;;;;;;;26.75;9.75;;;;;;;;;;5092919;28;20040;-61
2021/12/07 14:18:11;;;;;;;33.70;10.70;;;;;;;;;;5111854;28;20060;-61
2021/12/07 14:20:37;;;;;;;34.58;10.50;;;;;;;;;;5109884;28;20104;-61
2021/12/07 14:23:14;;;;;;;29.77;10.50;;;;;;;;;;5110346;28;20048;-62
2021/12/07 14:25:46;;;;;;;33.10;11.20;;;;;;;;;;5098891;28;20047;-61
2021/12/07 14:28:22;;;;;;;33.47;10.20;;;;;;;;;;5091529;28;20147;-64
2021/12/07 14:30:48;;;;;;;30.58;10.20;;;;;;;;;;5084616;28;20086;-61
2021/12/07 14:33:14;;;;;;;28.50;11.07;;;;;;;;;;5102656;28;20040;-62
2021/12/07 14:35:40;;;;;;;38.67;12.05;;;;;;;;;;5098269;28;20047;-62
2021/12/07 14:38:06;;;;;;;28.08;10.50;;;;;;;;;;5095996;28;20137;-61
2021/12/07 14:40:32;;;;;;;29.55;11.45;;;;;;;;;;5088520;28;20070;-61
2021/12/07 14:42:59;;;;;;;28.83;11.80;;;;;;;;;;5093999;28;20074;-61
2021/12/07 14:45:25;;;;;;;28.33;10.67;;;;;;;;;;5107188;28;20059;-61
2021/12/07 14:47:52;;;;;;;29.17;11.68;;;;;;;;;;5093616;28;20112;-61
2021/12/07 14:50:18;;;;;;;31.38;11.13;;;;;;;;;;5108718;28;20048;-61
2021/12/07 14:52:44;;;;;;;29.40;11.20;;;;;;;;;;5095024;28;20043;-61
2021/12/07 14:55:11;;;;;;;31.58;12.10;;;;;;;;;;5092372;28;20142;-64
2021/12/07 14:57:40;;;;;;;32.85;12.40;;;;;;;;;;5070067;28;20937;-64
2021/12/07 15:00:07;;;;;;;31.98;11.70;;;;;;;;;;5095372;28;20071;-66
2021/12/07 15:02:35;;;;;;;24.80;11.20;;;;;;;;;;5095051;28;20105;-66
2021/12/07 15:05:02;;;;;;;29.35;12.07;;;;;;;;;;5098395;28;20036;-65
2021/12/07 15:07:33;;;;;;;37.55;13.25;;;;;;;;;;5108314;28;20043;-65
2021/12/07 15:10:20;;;;;;;33.90;13.48;;;;;;;;;;5108301;28;20445;-66
2021/12/07 15:12:49;;;;;;;34.70;14.00;;;;;;;;;;5091480;28;20476;-65
2021/12/07 15:15:17;;;;;;;37.30;13.47;;;;;;;;;;5088193;28;20143;-66
2021/12/07 15:17:45;;;;;;;30.27;13.70;;;;;;;;;;5079590;28;20082;-65
2021/12/07 15:20:13;;;;;;;32.42;13.98;;;;;;;;;;5106359;28;20040;-65
2021/12/07 15:22:41;;;;;;;32.53;13.63;;;;;;;;;;5096420;28;20444;-66
2021/12/07 15:25:11;;;;;;;30.20;13.48;;;;;;;;;;5101843;28;20048;-65
2021/12/07 15:27:37;;;;;;;36.78;14.80;;;;;;;;;;5100362;28;20146;-65
2021/12/07 15:30:03;;;;;;;30.95;14.60;;;;;;;;;;5093874;28;20135;-66
2021/12/07 15:32:29;;;;;;;36.50;15.02;;;;;;;;;;5104046;28;20062;-66
2021/12/07 15:34:55;;;;;;;49.03;16.52;;;;;;;;;;5111316;28;20043;-65
2021/12/07 15:37:23;;;;;;;39.78;16.98;;;;;;;;;;5097100;28;20123;-66
2021/12/07 15:39:53;;;;;;;38.67;17.02;;;;;;;;;;5097068;28;20483;-64
2021/12/07 15:42:21;;;;;;;33.73;16.17;;;;;;;;;;5106875;28;20447;-64
2021/12/07 15:44:52;;;;;;;38.90;18.23;;;;;;;;;;5087613;28;20141;-65
2021/12/07 15:47:19;;;;;;;38.92;17.27;;;;;;;;;;5102294;28;20226;-66
2021/12/07 15:49:51;;;;;;;33.83;16.92;;;;;;;;;;5099811;28;20113;-67
2021/12/07 15:52:18;;;;;;;52.57;21.07;;;;;;;;;;5099572;28;20040;-66
2021/12/07 15:54:58;;;;;;;39.22;18.42;;;;;;;;;;5107247;27;20066;-66
2021/12/07 15:57:24;;;;;;;45.07;21.23;;;;;;;;;;5102072;28;20054;-67
2021/12/07 15:59:50;;;;;;;;;;;;;;;;;;5105976;28;20101;-66
2021/12/07 16:02:21;;;;;;;50.93;23.13;;;;;;;;;;5110529;28;19920;-65
2021/12/07 16:04:47;;;;;;;51.40;26.87;;;;;;;;;;5111249;28;20051;-66
2021/12/07 16:07:21;;;;;;;49.28;24.63;;;;;;;;;;5097323;28;20044;-66
2021/12/07 16:10:04;;;;;;;42.90;21.67;;;;;;;;;;5110348;28;20081;-66